KSLI

Los Alamitos AAF Airport

Los Alamitos, California, USA
TAF AMD KSLI 162228Z 1622/1803 13009KT 8000 -SHRA BKN006 OVC010 QNH3012INS TEMPO 1622/1709 BKN008 BECMG 1708/1709 15009KT 4800 -SHRA OVC004 QNH3011INS BECMG 1720/1721 19009KT 4800 -SHRA BKN007 QNH3013INS TX16/1622Z TN12/1715Z
Issued Valid From Valid To
Jan-16 @ 22:28 UTC
(2 hours ago)
Jan-16 @ 22:00 UTC
(3 hours ago)
Jan-18 @ 03:00 UTC
(-1 days ago)
Jan-16 @ 22:00 to Jan-17 @ 08:00
TAF AMD KSLI 162228Z 1622/1803 13009KT 8000 -SHRA BKN006 OVC010 QNH3012INS
Wind Visibility Clouds Conditions Readings
130° at 9 knots 497 miles
  • Broken at 600' AGL
  • Overcast at 1,000' AGL
  • Light Rain
Altimeter 30.12" Hg
Pressure 1019.92 hPa
Temporary Jan-16 @ 22:00 to Jan-17 @ 09:00
TEMPO 1622/1709 BKN008
Clouds
  • Broken at 800' AGL
Becoming Jan-17 @ 08:00 to Jan-17 @ 20:00
BECMG 1708/1709 15009KT 4800 -SHRA OVC004 QNH3011INS
Wind Visibility Clouds Conditions Readings
150° at 9 knots 298 miles
  • Overcast at 400' AGL
  • Light Rain
Altimeter 30.12" Hg
Pressure 1019.92 hPa
Becoming Jan-17 @ 20:00 to Jan-18 @ 03:00
BECMG 1720/1721 19009KT 4800 -SHRA BKN007 QNH3013INS TX16/1622Z TN12/1715Z
Wind Visibility Clouds Conditions Readings
190° at 9 knots 298 miles
  • Broken at 700' AGL
  • Light Rain
Altimeter 30.12" Hg
Pressure 1019.92 hPa
TAF AMD KSLI 162228Z 1622/1803 13009KT 8000 -SHRA BKN006 OVC010 QNH3012INS TEMPO 1622/1709 BKN008 BECMG 1708/1709 15009KT 4800 -SHRA OVC004 QNH3011INS BECMG 1720/1721 19009KT 4800 -SHRA BKN007 QNH3013INS TX16/1622Z TN12/1715Z
Issued Jan-16 @ 22:28 UTC
(2 hours ago)
Valid From Jan-16 @ 22:00 UTC
(3 hours ago)
Valid To Jan-18 @ 03:00 UTC
(-1 days ago)
Jan-16 @ 22:00 - Jan-17 @ 08:00
Wind Visibility
130° at 9 knots 497 miles
Clouds
  • Broken at 600' AGL
  • Overcast at 1,000' AGL
Conditions
  • Light Rain
Temporary Jan-16 @ 22:00 - Jan-17 @ 09:00
Clouds
  • Broken at 800' AGL
Becoming Jan-17 @ 08:00 - Jan-17 @ 20:00
Wind Visibility
150° at 9 knots 298 miles
Clouds
  • Overcast at 400' AGL
Conditions
  • Light Rain
Becoming Jan-17 @ 20:00 - Jan-18 @ 03:00
Wind Visibility
190° at 9 knots 298 miles
Clouds
  • Broken at 700' AGL
Conditions
  • Light Rain